KAFW/AFW METAR and TAF weather

Enter ICAO airport designator
Station Type Date Time Source
KAFW METAR 2018/12/18 11:53 UTC NOAA

KAFW 181153Z 00000KT 8SM SCT160 03/01 A3009 RMK AO2 SLP196 T00280011 10067 20022 56007


Station Type Date Time Source
KAFW Decoded METAR 2018/12/18 11:53 UTC NOAA

FORT WORTH ALLIANCE AIRPORT, TX, United States (KAFW) 32-59N 097-19W 233M
Dec 18, 2018 - 06:53 AM EST / 2018.12.18 1153 UTC
Wind: Calm:0
Visibility: 8 mile(s):0
Sky conditions: partly cloudy
Temperature: 37.0 F (2.8 C)
Dew Point: 34.0 F (1.1 C)
Relative Humidity: 88%
Pressure (altimeter): 30.09 in. Hg (1018 hPa)
Pressure tendency: 0.02 inches (0.7 hPa) lower than three hours ago
ob: KAFW 181153Z 00000KT 8SM SCT160 03/01 A3009 RMK AO2 SLP196 T00280011 10067 20022 56007
cycle: 12

Station Type Date Time Source
KAFW TAF 2018/12/18 12:30 UTC NOAA

TAF KAFW 181127Z 1812/1912 VRB03KT 6SM BR FEW250
TEMPO 1812/1814 3SM BR
FM181500 16007KT P6SM BKN250
FM190600 16005KT P6SM VCSH BKN120
FM191100 17006KT P6SM VCSH BKN012


Example: see airport list